Time;durP1;ratioP1;P1;durP2;ratioP2;P2;SDS_P1;SDS_P2;PMS_P1;PMS_P2;Temp;Humidity;BMP_temperature;BMP_pressure;BME280_temperature;BME280_humidity;BME280_pressure;Samples;Min_cycle;Max_cycle;Signal;HPM_P1;HPM_P2
2021/01/31 00:02:11;;;;;;;12.60;6.65;;;;;;;18.43;44.97;99368.78;5073279;28;20093;-71
2021/01/31 00:04:36;;;;;;;15.38;7.78;;;;;;;18.43;44.92;99355.16;5073167;28;20111;-72
2021/01/31 00:07:03;;;;;;;20.63;7.80;;;;;;;18.40;45.29;99348.28;5044222;28;20456;-72
2021/01/31 00:09:29;;;;;;;14.27;7.10;;;;;;;18.33;44.56;99344.72;5069218;28;20170;-71
2021/01/31 00:11:54;;;;;;;10.63;6.00;;;;;;;18.44;43.78;99362.28;5065319;28;20392;-71
2021/01/31 00:14:20;;;;;;;13.80;6.97;;;;;;;18.49;43.84;99363.38;5066370;28;20036;-71
2021/01/31 00:16:45;;;;;;;12.73;6.28;;;;;;;18.50;43.84;99347.88;5083338;28;20438;-72
2021/01/31 00:19:11;;;;;;;14.77;5.75;;;;;;;18.53;43.68;99353.72;5111166;28;20047;-72
2021/01/31 00:21:36;;;;;;;18.15;6.18;;;;;;;18.53;43.16;99352.91;5110774;28;20497;-71
2021/01/31 00:24:02;;;;;;;14.88;6.07;;;;;;;18.52;43.37;99348.50;5078333;28;20027;-71
2021/01/31 00:26:28;;;;;;;13.90;5.95;;;;;;;18.46;43.65;99349.31;5108802;28;20038;-71
2021/01/31 00:28:53;;;;;;;11.20;5.60;;;;;;;18.44;43.64;99348.69;5084731;28;20031;-71
2021/01/31 00:31:19;;;;;;;10.68;5.20;;;;;;;18.49;43.96;99354.38;5107416;28;20428;-72
2021/01/31 00:33:44;;;;;;;9.07;5.03;;;;;;;18.55;43.55;99353.53;5113609;28;20027;-71
2021/01/31 00:36:10;;;;;;;11.55;5.13;;;;;;;18.47;43.75;99337.38;5110543;28;20031;-72
2021/01/31 00:38:35;;;;;;;9.60;4.80;;;;;;;18.54;43.78;99349.13;5094153;28;20446;-71
2021/01/31 00:41:01;;;;;;;11.55;4.68;;;;;;;18.52;43.49;99353.94;5096191;28;20023;-72
2021/01/31 00:43:26;;;;;;;9.18;4.43;;;;;;;18.50;43.38;99356.03;5111766;28;20453;-72
2021/01/31 00:45:53;;;;;;;6.25;3.97;;;;;;;18.46;43.29;99343.88;5089827;28;20084;-72
2021/01/31 00:48:18;;;;;;;7.60;4.38;;;;;;;18.52;42.93;99343.06;5094712;28;20059;-72
2021/01/31 00:50:44;;;;;;;6.60;3.80;;;;;;;18.65;42.14;99351.28;5089505;28;20054;-72
2021/01/31 00:53:10;;;;;;;6.53;4.00;;;;;;;18.72;42.70;99352.09;5112477;28;20031;-72
2021/01/31 00:55:36;;;;;;;4.97;3.17;;;;;;;18.74;41.80;99351.88;5112181;28;20068;-72
2021/01/31 00:58:02;;;;;;;6.70;3.65;;;;;;;18.71;42.91;99353.13;5093610;28;20038;-72
2021/01/31 01:00:30;;;;;;;6.32;3.78;;;;;;;18.65;42.33;99359.44;5092712;28;20027;-72
2021/01/31 01:02:55;;;;;;;6.10;4.10;;;;;;;18.63;42.36;99345.16;5107350;28;20086;-72
2021/01/31 01:05:23;;;;;;;6.63;3.15;;;;;;;18.70;42.51;99346.03;5100223;28;20032;-72
2021/01/31 01:07:48;;;;;;;7.88;3.35;;;;;;;18.77;42.75;99351.47;5104716;28;20047;-73
2021/01/31 01:10:18;;;;;;;5.28;3.05;;;;;;;18.77;43.04;99344.13;5113833;28;20031;-72
2021/01/31 01:12:44;;;;;;;4.60;2.83;;;;;;;18.75;42.70;99346.22;5093979;28;20027;-72
2021/01/31 01:15:10;;;;;;;4.18;2.63;;;;;;;18.76;42.36;99350.63;5093296;28;20358;-72
2021/01/31 01:17:36;;;;;;;4.50;2.70;;;;;;;18.77;42.01;99363.19;5094380;28;20453;-72
2021/01/31 01:20:03;;;;;;;4.40;2.70;;;;;;;18.71;41.91;99347.69;5092054;28;20024;-72
2021/01/31 01:22:29;;;;;;;5.50;3.38;;;;;;;18.84;41.69;99364.03;5092013;28;20426;-72
2021/01/31 01:24:54;;;;;;;4.47;2.72;;;;;;;18.87;42.25;99358.16;5101228;28;20050;-72
2021/01/31 01:27:21;;;;;;;4.55;2.55;;;;;;;18.84;42.21;99357.75;5106114;28;20028;-72
2021/01/31 01:29:46;;;;;;;4.45;2.67;;;;;;;18.84;42.23;99363.19;5074980;28;20031;-72
2021/01/31 01:32:12;;;;;;;4.20;2.38;;;;;;;18.76;42.12;99360.66;5112371;28;20087;-72
2021/01/31 01:34:38;;;;;;;4.30;2.20;;;;;;;18.66;42.82;99363.81;5077679;28;20034;-72
2021/01/31 01:37:03;;;;;;;5.00;2.15;;;;;;;18.68;42.62;99364.44;5093710;28;20028;-72
2021/01/31 01:39:29;;;;;;;5.05;2.53;;;;;;;18.73;42.34;99366.53;5093526;28;20498;-72
2021/01/31 01:41:54;;;;;;;4.40;2.58;;;;;;;18.78;41.72;99353.13;5076400;28;20122;-72
2021/01/31 01:44:20;;;;;;;3.83;2.35;;;;;;;18.79;41.52;99365.69;5094919;28;20118;-72
2021/01/31 01:46:48;;;;;;;3.42;2.08;;;;;;;18.75;41.66;99365.28;5092338;28;20438;-72
2021/01/31 01:49:20;;;;;;;3.63;2.17;;;;;;;18.74;41.75;99374.50;5083069;28;20036;-72
2021/01/31 01:51:55;;;;;;;2.85;1.80;;;;;;;18.71;41.81;99369.47;5064721;28;20047;-72
2021/01/31 01:54:23;;;;;;;;;;;;;;;18.72;41.64;99373.88;5080760;28;20128;-72
2021/01/31 01:56:53;;;;;;;5.03;2.38;;;;;;;18.75;41.97;99370.72;5115120;28;19919;-72
2021/01/31 01:59:18;;;;;;;5.68;2.85;;;;;;;18.78;41.64;99364.03;5065705;28;20037;-73
2021/01/31 02:01:56;;;;;;;4.35;1.77;;;;;;;18.76;42.12;99366.13;5072711;28;20020;-72
2021/01/31 02:04:21;;;;;;;3.42;2.05;;;;;;;18.73;41.44;99363.81;5089399;28;20110;-72
2021/01/31 02:06:47;;;;;;;3.92;1.80;;;;;;;18.62;43.24;99362.50;5092503;28;20432;-73
2021/01/31 02:09:12;;;;;;;3.28;1.67;;;;;;;18.55;43.52;99359.81;5077783;28;20083;-73
2021/01/31 02:11:38;;;;;;;2.75;1.77;;;;;;;18.62;42.16;99359.78;5115542;28;20074;-73
2021/01/31 02:14:07;;;;;;;2.45;1.42;;;;;;;18.71;42.26;99363.19;5098874;28;20063;-72
2021/01/31 02:16:54;;;;;;;3.25;1.70;;;;;;;18.73;41.92;99372.81;5115836;28;20051;-72
2021/01/31 02:19:47;;;;;;;3.53;1.80;;;;;;;18.73;42.07;99383.72;5109984;28;20024;-72
2021/01/31 02:22:47;;;;;;;3.17;1.75;;;;;;;18.72;41.29;99376.59;5109284;28;20380;-72
2021/01/31 02:25:48;;;;;;;2.58;1.55;;;;;;;18.69;41.93;99377.00;5106579;28;20036;-73
2021/01/31 02:28:26;;;;;;;2.60;1.58;;;;;;;18.67;41.50;99376.38;5094203;28;20035;-72
2021/01/31 02:31:10;;;;;;;3.03;1.38;;;;;;;18.70;42.19;99373.25;5111967;28;20038;-73
2021/01/31 02:33:49;;;;;;;2.55;1.20;;;;;;;18.72;41.91;99375.75;5114560;28;20110;-72
2021/01/31 02:36:47;;;;;;;3.63;1.35;;;;;;;18.68;42.17;99369.91;5077234;28;20071;-72
2021/01/31 02:39:48;;;;;;;3.45;1.40;;;;;;;18.55;43.03;99365.25;5115418;28;20038;-72
2021/01/31 02:42:51;;;;;;;4.15;1.55;;;;;;;18.43;44.29;99376.94;5110336;28;20043;-72
2021/01/31 02:45:25;;;;;;;4.65;1.60;;;;;;;18.50;43.59;99377.81;4996669;28;20038;-72
2021/01/31 02:48:21;;;;;;;3.15;1.58;;;;;;;18.60;42.47;99373.63;4991201;28;20361;-72
2021/01/31 02:50:52;;;;;;;2.38;1.40;;;;;;;18.63;42.56;99366.94;5006995;28;20427;-73
2021/01/31 02:53:24;;;;;;;1.85;1.13;;;;;;;18.61;42.65;99366.28;5010496;28;20030;-73
2021/01/31 02:55:53;;;;;;;2.92;1.40;;;;;;;18.58;42.20;99358.53;5011248;28;20038;-72
2021/01/31 02:58:23;;;;;;;1.42;1.10;;;;;;;18.59;41.93;99361.06;4993484;28;20051;-72
2021/01/31 03:01:09;;;;;;;1.88;1.10;;;;;;;18.47;43.23;99361.88;4989410;28;20148;-72
2021/01/31 03:03:59;;;;;;;2.55;1.45;;;;;;;18.43;43.25;99357.91;4995156;28;20128;-72
2021/01/31 03:06:28;;;;;;;2.05;1.02;;;;;;;18.49;43.01;99365.25;4997164;28;20030;-72
2021/01/31 03:09:01;;;;;;;3.60;1.70;;;;;;;18.49;43.34;99357.09;4988415;28;20038;-74
2021/01/31 03:11:50;;;;;;;8.40;1.58;;;;;;;18.44;43.81;99363.13;5009802;28;20038;-73
2021/01/31 03:14:20;;;;;;;3.13;1.02;;;;;;;18.26;44.04;99354.72;4989657;28;20038;-72
2021/01/31 03:16:54;;;;;;;3.67;1.38;;;;;;;18.27;44.46;99362.69;4993868;28;20108;-73
2021/01/31 03:19:30;;;;;;;4.70;1.10;;;;;;;18.29;44.37;99371.47;4993628;28;20357;-72
2021/01/31 03:21:57;;;;;;;2.80;1.10;;;;;;;18.36;44.13;99370.66;5090008;28;20023;-72
2021/01/31 03:24:31;;;;;;;3.67;1.20;;;;;;;18.39;43.84;99370.25;5110900;28;20032;-72
2021/01/31 03:26:59;;;;;;;2.50;1.23;;;;;;;18.39;44.30;99359.38;5093725;28;20023;-72
2021/01/31 03:29:25;;;;;;;3.83;1.40;;;;;;;18.34;44.21;99358.09;5113297;28;20114;-72
2021/01/31 03:31:58;;;;;;;2.53;1.25;;;;;;;18.31;43.61;99363.97;5109963;28;20038;-72
2021/01/31 03:34:42;;;;;;;1.90;1.00;;;;;;;18.24;44.04;99357.66;5077732;28;20077;-72
2021/01/31 03:37:08;;;;;;;1.20;0.90;;;;;;;18.26;44.14;99354.72;5080487;28;20023;-72
2021/01/31 03:39:33;;;;;;;2.33;1.08;;;;;;;18.32;43.86;99365.66;5080854;27;20386;-72
2021/01/31 03:41:59;;;;;;;2.25;0.90;;;;;;;18.32;43.66;99359.38;5080792;28;20028;-72
2021/01/31 03:44:25;;;;;;;2.08;0.80;;;;;;;18.27;43.72;99354.53;5095457;28;20058;-72
2021/01/31 03:46:58;;;;;;;2.35;1.30;;;;;;;18.22;43.67;99357.03;5072506;28;20511;-72
2021/01/31 03:49:32;;;;;;;1.67;0.73;;;;;;;18.15;44.11;99361.63;5069934;28;20034;-72
2021/01/31 03:51:58;;;;;;;1.30;0.85;;;;;;;18.13;44.19;99358.25;5086395;28;20020;-72
2021/01/31 03:54:24;;;;;;;1.92;0.85;;;;;;;18.21;44.08;99358.06;5064361;28;20526;-72
2021/01/31 03:56:54;;;;;;;1.35;0.90;;;;;;;18.29;44.03;99366.03;5089990;28;20039;-72
2021/01/31 03:59:23;;;;;;;2.88;0.98;;;;;;;18.28;43.71;99353.47;5077267;28;20039;-73
2021/01/31 04:01:49;;;;;;;2.05;0.80;;;;;;;18.21;43.76;99349.06;5093551;28;20349;-72
2021/01/31 04:04:19;;;;;;;1.70;0.75;;;;;;;18.22;43.84;99351.59;5093535;28;20031;-72
2021/01/31 04:06:48;;;;;;;0.88;0.70;;;;;;;18.14;43.85;99354.50;5087636;28;20043;-72
2021/01/31 04:09:13;;;;;;;1.15;0.80;;;;;;;18.18;44.05;99347.63;5072108;28;20023;-72
2021/01/31 04:11:41;;;;;;;2.00;1.17;;;;;;;18.19;43.63;99349.28;5095550;28;20042;-72
2021/01/31 04:14:39;;;;;;;1.60;0.57;;;;;;;18.23;43.35;99350.53;5077583;28;20507;-73
2021/01/31 04:17:05;;;;;;;2.85;0.95;;;;;;;18.20;43.69;99350.97;5026348;28;20060;-72
2021/01/31 04:19:30;;;;;;;0.63;0.52;;;;;;;18.15;43.57;99350.75;5032842;28;20064;-72
2021/01/31 04:21:56;;;;;;;1.05;0.60;;;;;;;18.06;43.71;99351.13;5028450;28;20057;-72
2021/01/31 04:24:21;;;;;;;3.22;0.60;;;;;;;17.94;44.15;99348.16;5005148;28;20423;-72
2021/01/31 04:26:47;;;;;;;0.73;0.50;;;;;;;18.04;43.86;99357.63;5010702;28;20141;-72
2021/01/31 04:29:12;;;;;;;1.08;0.70;;;;;;;18.14;43.81;99362.69;5024018;28;20522;-72
2021/01/31 04:31:38;;;;;;;0.75;0.50;;;;;;;18.15;43.95;99363.50;5011970;28;20029;-72
2021/01/31 04:34:04;;;;;;;0.70;0.50;;;;;;;18.16;43.81;99363.31;5031046;28;20133;-72
2021/01/31 04:36:29;;;;;;;1.50;0.63;;;;;;;18.12;43.82;99370.19;5014339;28;20147;-73
2021/01/31 04:38:55;;;;;;;1.23;0.60;;;;;;;18.08;43.61;99360.75;5019426;28;20041;-72
2021/01/31 04:41:21;;;;;;;0.70;0.60;;;;;;;18.10;43.80;99371.44;5028776;28;20040;-72
2021/01/31 04:43:49;;;;;;;0.70;0.47;;;;;;;18.11;43.77;99360.34;4986294;28;20422;-73
2021/01/31 04:46:19;;;;;;;0.75;0.70;;;;;;;18.12;43.31;99364.72;5011959;28;20045;-73
2021/01/31 04:49:05;;;;;;;0.95;0.43;;;;;;;18.12;43.02;99367.44;5041627;28;20140;-72
2021/01/31 04:51:51;;;;;;;0.70;0.50;;;;;;;18.09;42.96;99375.19;5024820;28;20037;-72
2021/01/31 04:54:56;;;;;;;1.20;0.50;;;;;;;18.02;42.81;99364.31;5088470;28;20043;-72
2021/01/31 04:57:41;;;;;;;0.32;0.30;;;;;;;17.90;42.94;99371.38;4984484;28;20042;-72
2021/01/31 05:00:16;;;;;;;0.63;0.38;;;;;;;18.01;43.21;99373.50;4988196;28;20102;-70
2021/01/31 05:02:44;;;;;;;0.70;0.40;;;;;;;17.90;43.31;99345.03;4986684;28;20092;-70
2021/01/31 05:05:38;;;;;;;1.08;0.40;;;;;;;18.08;43.69;99363.47;4971619;28;20121;-71
2021/01/31 05:08:06;;;;;;;0.63;0.47;;;;;;;18.03;43.62;99357.81;4985955;28;20038;-72
2021/01/31 05:10:32;;;;;;;0.70;0.50;;;;;;;18.03;43.56;99368.69;4960142;28;21931;-72
2021/01/31 05:13:10;;;;;;;0.57;0.40;;;;;;;17.99;43.45;99364.72;4987683;28;20034;-72
2021/01/31 05:16:04;;;;;;;1.50;0.25;;;;;;;18.02;43.54;99369.75;4989980;28;20125;-73
2021/01/31 05:18:29;;;;;;;0.65;0.40;;;;;;;18.04;43.18;99367.66;4994708;28;20060;-72
2021/01/31 05:20:57;;;;;;;0.60;0.40;;;;;;;18.04;43.24;99371.22;4972584;28;20050;-72
2021/01/31 05:23:23;;;;;;;0.40;0.20;;;;;;;17.98;43.10;99373.91;4972128;28;20062;-72
2021/01/31 05:25:49;;;;;;;0.70;0.30;;;;;;;17.92;43.04;99374.72;4974203;28;20586;-72
2021/01/31 05:28:14;;;;;;;0.65;0.35;;;;;;;17.86;42.68;99368.22;4979746;28;20046;-72
2021/01/31 05:30:44;;;;;;;0.75;0.30;;;;;;;17.83;42.38;99384.09;4976847;28;20427;-72
2021/01/31 05:33:18;;;;;;;0.55;0.32;;;;;;;17.88;42.52;99376.16;5001635;28;20040;-72
2021/01/31 05:35:49;;;;;;;0.40;0.40;;;;;;;17.86;42.34;99365.50;5075085;28;20042;-72
2021/01/31 05:38:32;;;;;;;2.90;0.65;;;;;;;17.96;42.23;99381.41;5087140;28;20389;-73
2021/01/31 05:40:58;;;;;;;0.60;0.57;;;;;;;17.95;42.76;99377.03;5103426;28;20331;-72
2021/01/31 05:43:24;;;;;;;2.67;0.40;;;;;;;17.89;42.90;99375.13;5074163;28;20089;-72
2021/01/31 05:45:50;;;;;;;0.40;0.30;;;;;;;17.91;43.06;99373.03;5060225;28;20118;-72
2021/01/31 05:48:24;;;;;;;0.50;0.25;;;;;;;17.93;42.98;99360.06;5094883;28;20035;-72
2021/01/31 05:50:49;;;;;;;1.85;0.25;;;;;;;18.01;43.44;99363.47;5094711;28;20353;-72
2021/01/31 05:53:35;;;;;;;0.73;0.30;;;;;;;17.96;43.20;99367.81;5094024;28;20055;-72
2021/01/31 05:56:20;;;;;;;0.60;0.38;;;;;;;17.93;42.85;99365.50;5086250;28;20056;-72
2021/01/31 05:58:46;;;;;;;2.72;0.40;;;;;;;17.86;42.93;99367.38;5105237;28;20433;-71
2021/01/31 06:01:13;;;;;;;3.40;0.45;;;;;;;17.77;43.20;99368.59;5103523;28;20059;-72
2021/01/31 06:03:39;;;;;;;1.00;0.35;;;;;;;17.76;45.15;99377.78;5077960;28;20031;-72
2021/01/31 06:06:16;;;;;;;0.60;0.20;;;;;;;17.75;45.09;99379.66;5106117;28;20471;-72
2021/01/31 06:08:44;;;;;;;1.75;0.30;;;;;;;17.80;43.50;99376.34;5103979;28;20027;-70
2021/01/31 06:11:18;;;;;;;0.93;0.40;;;;;;;17.80;43.61;99376.34;5061827;28;20454;-71
2021/01/31 06:13:44;;;;;;;3.88;0.30;;;;;;;17.78;43.37;99383.84;5107702;28;20039;-69
2021/01/31 06:16:18;;;;;;;2.92;0.40;;;;;;;17.77;43.62;99387.63;5111235;28;20052;-71
2021/01/31 06:18:46;;;;;;;0.60;0.35;;;;;;;17.75;43.70;99395.97;5082065;28;20507;-72
2021/01/31 06:21:16;;;;;;;1.08;0.28;;;;;;;17.82;43.79;99391.44;5077361;28;20038;-70
2021/01/31 06:23:50;;;;;;;1.90;0.40;;;;;;;17.83;43.33;99393.09;5113635;28;20038;-70
2021/01/31 06:26:30;;;;;;;0.70;0.30;;;;;;;17.74;43.59;99378.81;5081347;28;20040;-72
2021/01/31 06:29:38;;;;;;;2.05;0.70;;;;;;;17.78;43.74;99400.16;5080242;28;20031;-69
2021/01/31 06:32:11;;;;;;;0.75;0.30;;;;;;;17.72;43.67;99389.06;5097022;28;20044;-70
2021/01/31 06:34:39;;;;;;;0.60;0.20;;;;;;;17.72;42.93;99399.94;5092976;28;20031;-72
2021/01/31 06:37:28;;;;;;;0.57;0.20;;;;;;;17.68;45.21;99395.97;5090584;28;20023;-72
2021/01/31 06:40:15;;;;;;;0.70;0.32;;;;;;;17.69;44.97;99397.63;5027935;28;20119;-72
2021/01/31 06:43:18;;;;;;;2.40;0.30;;;;;;;17.70;43.67;99401.19;5023949;28;20054;-71
2021/01/31 06:46:06;;;;;;;0.60;0.28;;;;;;;17.66;43.82;99398.00;5030590;28;20128;-72
2021/01/31 06:48:43;;;;;;;0.50;0.32;;;;;;;17.66;43.65;99402.59;4990593;28;20041;-72
2021/01/31 06:51:26;;;;;;;0.75;0.38;;;;;;;17.67;43.27;99407.84;5027552;28;20080;-75
2021/01/31 06:54:22;;;;;;;2.30;0.60;;;;;;;17.74;43.54;99408.72;5009315;28;20415;-72
2021/01/31 06:57:06;;;;;;;0.95;0.50;;;;;;;17.77;43.22;99409.34;5021617;28;20045;-72
2021/01/31 06:59:50;;;;;;;0.95;0.40;;;;;;;17.73;43.30;99415.22;5024351;28;20115;-72
2021/01/31 07:02:23;;;;;;;0.50;0.22;;;;;;;17.68;43.44;99411.44;5025402;28;20176;-72
2021/01/31 07:05:15;;;;;;;1.10;0.30;;;;;;;17.63;43.63;99408.41;5014842;28;20451;-72
2021/01/31 07:08:11;;;;;;;0.50;0.20;;;;;;;17.66;43.11;99408.88;5004092;28;20030;-72
2021/01/31 07:11:02;;;;;;;0.95;0.40;;;;;;;17.66;44.45;99414.31;5010728;28;20041;-72
2021/01/31 07:13:46;;;;;;;0.77;0.40;;;;;;;17.58;45.58;99408.19;5014740;28;20041;-72
2021/01/31 07:16:25;;;;;;;0.55;0.40;;;;;;;17.56;43.98;99402.97;5030677;28;20052;-72
2021/01/31 07:18:56;;;;;;;1.02;0.30;;;;;;;17.54;42.94;99405.03;5080892;28;20043;-72
2021/01/31 07:21:25;;;;;;;2.55;0.50;;;;;;;17.53;43.16;99403.38;5061469;28;20184;-72
2021/01/31 07:23:51;;;;;;;0.43;0.20;;;;;;;17.58;42.62;99406.31;5075633;28;20016;-72
2021/01/31 07:26:24;;;;;;;0.88;0.30;;;;;;;17.65;43.28;99407.19;5091174;28;20057;-72
2021/01/31 07:28:50;;;;;;;0.37;0.27;;;;;;;17.67;43.02;99410.56;5086357;28;20032;-72
2021/01/31 07:31:47;;;;;;;0.28;0.20;;;;;;;17.66;43.34;99408.03;5042148;28;20035;-72
2021/01/31 07:34:38;;;;;;;1.65;0.30;;;;;;;17.62;43.89;99413.00;5094435;28;20466;-71
2021/01/31 07:37:14;;;;;;;0.40;0.20;;;;;;;17.55;44.06;99404.00;5092881;28;20402;-72
2021/01/31 07:40:05;;;;;;;0.60;0.20;;;;;;;17.62;44.01;99412.19;5115089;28;20036;-70
2021/01/31 07:42:31;;;;;;;0.52;0.30;;;;;;;17.68;43.22;99412.25;5111332;28;20093;-69
2021/01/31 07:45:02;;;;;;;0.47;0.20;;;;;;;17.62;45.01;99407.56;5073657;28;20114;-70
2021/01/31 07:47:28;;;;;;;1.27;0.50;;;;;;;17.55;45.37;99412.16;5086977;28;20028;-70
2021/01/31 07:50:06;;;;;;;0.50;0.10;;;;;;;17.54;44.44;99420.50;5086848;28;20063;-70
2021/01/31 07:52:55;;;;;;;2.17;0.35;;;;;;;17.53;43.80;99418.81;5112590;28;20041;-70
2021/01/31 07:55:42;;;;;;;0.30;0.30;;;;;;;17.57;43.24;99420.94;5093506;28;20062;-70
2021/01/31 07:58:13;;;;;;;0.22;0.20;;;;;;;17.61;43.08;99422.22;5092080;28;20039;-70
2021/01/31 08:00:43;;;;;;;0.50;0.38;;;;;;;17.63;43.01;99419.28;5085775;28;20034;-70
2021/01/31 08:03:31;;;;;;;1.17;0.30;;;;;;;17.65;43.25;99431.66;5085048;28;20365;-70
2021/01/31 08:06:17;;;;;;;0.22;0.10;;;;;;;17.64;43.67;99429.97;5110092;28;20030;-70
2021/01/31 08:08:53;;;;;;;0.73;0.20;;;;;;;17.62;44.31;99423.03;5110363;28;20032;-71
2021/01/31 08:11:28;;;;;;;0.30;0.10;;;;;;;17.67;44.22;99426.84;5094431;28;20038;-74
2021/01/31 08:13:53;;;;;;;3.97;0.35;;;;;;;17.78;43.18;99417.31;5112662;28;20149;-74
2021/01/31 08:16:37;;;;;;;6.70;1.10;;;;;;;17.80;42.98;99425.25;5057086;28;20122;-75
2021/01/31 08:19:09;;;;;;;1.05;0.30;;;;;;;17.64;43.37;99410.97;5104297;28;20081;-74
2021/01/31 08:21:55;;;;;;;2.58;0.55;;;;;;;17.60;44.44;99414.25;5093310;28;20019;-75
2021/01/31 08:24:58;;;;;;;0.70;0.40;;;;;;;17.60;43.98;99428.69;5077931;28;20034;-74
2021/01/31 08:27:41;;;;;;;0.90;0.32;;;;;;;17.65;42.48;99434.38;5087156;28;20031;-74
2021/01/31 08:30:28;;;;;;;1.00;0.30;;;;;;;17.72;42.58;99429.84;5110611;28;20035;-75
2021/01/31 08:33:21;;;;;;;1.85;0.40;;;;;;;17.74;42.40;99444.06;5113058;28;20030;-75
2021/01/31 08:35:50;;;;;;;0.50;0.30;;;;;;;17.73;42.77;99441.53;5067781;28;20455;-76
2021/01/31 08:38:47;;;;;;;1.35;0.40;;;;;;;17.61;43.74;99427.66;5089759;28;20054;-75
2021/01/31 08:41:19;;;;;;;0.68;0.50;;;;;;;17.70;43.52;99442.78;5106911;28;20028;-74
2021/01/31 08:43:49;;;;;;;1.25;0.57;;;;;;;17.74;44.25;99438.63;5078475;28;20068;-74
2021/01/31 08:46:19;;;;;;;1.17;0.68;;;;;;;17.81;43.90;99449.56;5071299;28;20027;-74
2021/01/31 08:49:01;;;;;;;3.05;0.40;;;;;;;17.72;43.46;99423.56;5112381;28;20035;-73
2021/01/31 08:51:31;;;;;;;1.17;0.50;;;;;;;17.74;43.75;99433.19;5078830;28;20426;-72
2021/01/31 08:54:08;;;;;;;2.22;0.60;;;;;;;17.68;44.27;99444.88;5090200;28;20036;-73
2021/01/31 08:56:46;;;;;;;1.60;0.70;;;;;;;17.69;43.53;99441.13;5109697;28;20016;-75
2021/01/31 08:59:18;;;;;;;1.95;0.60;;;;;;;17.86;44.42;99444.34;5091646;28;20036;-74
2021/01/31 09:01:48;;;;;;;5.93;1.20;;;;;;;17.90;43.76;99445.59;5091028;28;20058;-75
2021/01/31 09:04:15;;;;;;;4.80;0.57;;;;;;;17.89;43.30;99448.53;5087841;28;20118;-73
2021/01/31 09:06:43;;;;;;;6.43;0.88;;;;;;;17.85;43.22;99445.38;5077319;28;20127;-73
2021/01/31 09:09:22;;;;;;;2.35;0.98;;;;;;;17.86;43.61;99454.38;5077287;28;20035;-74
2021/01/31 09:12:00;;;;;;;6.05;1.10;;;;;;;17.84;43.53;99457.28;5055318;28;20030;-73
2021/01/31 09:14:27;;;;;;;6.20;1.17;;;;;;;17.84;43.64;99454.59;5070918;28;20032;-73
2021/01/31 09:17:21;;;;;;;4.97;1.45;;;;;;;17.92;43.40;99454.41;5085213;28;20087;-72
2021/01/31 09:19:46;;;;;;;5.25;1.45;;;;;;;17.98;43.91;99452.78;5091885;28;20027;-72
2021/01/31 09:22:18;;;;;;;5.05;1.38;;;;;;;17.97;43.56;99453.78;5061373;28;20054;-73
2021/01/31 09:24:45;;;;;;;5.78;1.80;;;;;;;17.94;43.74;99454.19;5071057;28;20122;-73
2021/01/31 09:27:21;;;;;;;4.78;1.75;;;;;;;17.85;43.55;99458.13;5074189;28;20048;-73
2021/01/31 09:29:48;;;;;;;6.40;1.90;;;;;;;17.77;43.83;99447.41;5071105;28;20439;-73
2021/01/31 09:32:20;;;;;;;6.13;2.20;;;;;;;17.91;43.37;99454.59;5090505;28;20635;-74
2021/01/31 09:34:47;;;;;;;6.95;2.03;;;;;;;17.99;43.10;99457.16;5106979;28;20027;-74
2021/01/31 09:37:24;;;;;;;5.53;2.25;;;;;;;18.01;43.48;99465.97;5086623;28;20027;-75
2021/01/31 09:39:50;;;;;;;5.88;2.20;;;;;;;18.00;43.85;99464.28;5090341;28;20035;-74
2021/01/31 09:42:16;;;;;;;7.15;2.17;;;;;;;17.96;43.24;99460.25;5074614;28;20081;-74
2021/01/31 09:45:07;;;;;;;5.82;2.03;;;;;;;17.92;43.56;99468.00;5059499;28;20039;-74
2021/01/31 09:47:32;;;;;;;7.40;2.45;;;;;;;17.96;43.18;99463.81;5088601;28;20472;-74
2021/01/31 09:50:02;;;;;;;6.30;2.42;;;;;;;17.98;43.08;99461.78;5106365;28;20028;-75
2021/01/31 09:52:27;;;;;;;8.30;2.90;;;;;;;18.03;43.19;99459.28;5063486;28;20380;-74
2021/01/31 09:54:53;;;;;;;10.13;2.78;;;;;;;18.06;44.28;99463.47;5070931;28;20161;-74
2021/01/31 09:57:23;;;;;;;8.95;3.60;;;;;;;18.02;43.97;99468.47;5073286;28;20047;-74
2021/01/31 10:00:01;;;;;;;8.30;2.40;;;;;;;17.96;43.00;99463.81;5078637;28;20031;-75
2021/01/31 10:02:26;;;;;;;6.50;2.97;;;;;;;17.93;43.60;99463.41;5081051;28;20083;-74
2021/01/31 10:04:57;;;;;;;4.32;2.15;;;;;;;17.98;44.00;99455.50;5079541;28;20122;-74
2021/01/31 10:07:35;;;;;;;8.40;2.38;;;;;;;18.09;42.84;99464.94;5090161;28;20024;-74
2021/01/31 10:10:22;;;;;;;5.30;1.92;;;;;;;18.04;43.52;99449.22;5089418;28;20047;-74
2021/01/31 10:12:48;;;;;;;3.95;2.03;;;;;;;18.06;42.79;99463.47;5109666;28;20054;-75
2021/01/31 10:15:14;;;;;;;7.45;1.90;;;;;;;18.03;42.73;99464.72;5095511;28;20401;-75
2021/01/31 10:17:46;;;;;;;4.93;1.90;;;;;;;18.02;42.52;99470.34;5076772;28;20055;-75
2021/01/31 10:20:34;;;;;;;4.53;2.15;;;;;;;18.03;42.28;99464.72;5091089;28;20035;-75
2021/01/31 10:23:12;;;;;;;5.07;2.25;;;;;;;18.07;42.10;99470.56;5095774;28;20042;-75
2021/01/31 10:25:41;;;;;;;3.72;1.67;;;;;;;18.09;42.83;99478.53;5089608;28;20031;-75
2021/01/31 10:28:07;;;;;;;4.13;1.90;;;;;;;18.07;43.14;99470.56;5087207;28;20639;-75
2021/01/31 10:30:36;;;;;;;3.53;2.05;;;;;;;18.07;42.62;99469.75;5089585;28;20154;-75
2021/01/31 10:33:01;;;;;;;2.78;1.50;;;;;;;18.02;42.55;99459.47;5046035;28;63795;-74
2021/01/31 10:35:33;;;;;;;6.15;2.25;;;;;;;17.97;43.55;99464.66;5022570;28;20036;-75
2021/01/31 10:38:00;;;;;;;5.78;2.20;;;;;;;18.03;43.42;99470.16;5027494;28;72605;-75
2021/01/31 10:40:26;;;;;;;3.63;2.05;;;;;;;18.18;43.00;99467.28;5043651;28;20024;-75
2021/01/31 10:42:52;;;;;;;6.07;1.60;;;;;;;18.22;42.13;99465.84;5065891;28;20040;-71
2021/01/31 10:45:26;;;;;;;7.25;1.60;;;;;;;18.23;42.97;99464.78;5051761;28;20036;-69
2021/01/31 10:47:52;;;;;;;3.58;1.50;;;;;;;18.19;44.76;99463.53;5053562;28;20510;-72
2021/01/31 10:50:19;;;;;;;10.13;2.25;;;;;;;18.14;44.03;99466.03;5054357;28;20087;-72
2021/01/31 10:52:47;;;;;;;3.65;1.92;;;;;;;18.17;44.79;99467.50;5060553;28;20055;-72
2021/01/31 10:55:13;;;;;;;3.83;1.63;;;;;;;18.20;44.99;99470.63;5063493;28;20466;-71
2021/01/31 10:57:39;;;;;;;5.95;1.50;;;;;;;18.18;44.90;99472.72;5064416;28;20033;-72
2021/01/31 11:00:07;;;;;;;3.42;1.60;;;;;;;18.18;45.14;99467.28;5063744;28;20035;-72
2021/01/31 11:02:34;;;;;;;2.80;1.23;;;;;;;18.14;45.00;99468.75;5067989;28;20050;-72
2021/01/31 11:04:59;;;;;;;12.77;1.38;;;;;;;18.13;44.07;99472.47;5066328;28;20086;-72
2021/01/31 11:07:25;;;;;;;4.82;1.50;;;;;;;18.07;45.60;99459.69;5065461;28;20032;-71
2021/01/31 11:09:51;;;;;;;2.13;1.10;;;;;;;18.08;45.66;99461.38;5063845;28;20441;-72
2021/01/31 11:12:16;;;;;;;3.05;1.30;;;;;;;18.14;45.14;99459.72;5072909;28;20037;-72
2021/01/31 11:14:42;;;;;;;2.40;1.15;;;;;;;18.18;45.04;99461.84;5068554;28;20024;-72
2021/01/31 11:17:08;;;;;;;3.50;1.05;;;;;;;18.19;45.01;99457.25;5074059;28;20066;-71
2021/01/31 11:19:34;;;;;;;2.35;1.25;;;;;;;18.13;45.01;99458.88;5071228;28;20027;-71
2021/01/31 11:21:59;;;;;;;2.55;1.15;;;;;;;18.09;45.00;99451.34;5067706;28;20029;-71
2021/01/31 11:24:25;;;;;;;2.20;1.15;;;;;;;18.08;44.91;99455.94;5066798;28;20043;-71
2021/01/31 11:26:50;;;;;;;2.28;1.20;;;;;;;18.14;44.61;99466.03;5072027;28;20036;-72
2021/01/31 11:29:16;;;;;;;3.25;1.40;;;;;;;18.15;44.36;99456.81;5073901;28;20036;-71
2021/01/31 11:31:41;;;;;;;2.10;0.90;;;;;;;18.18;44.35;99461.84;5072493;28;20040;-71
2021/01/31 11:34:07;;;;;;;2.65;1.00;;;;;;;18.14;44.07;99454.28;5073069;28;20028;-71
2021/01/31 11:36:33;;;;;;;3.03;1.42;;;;;;;18.08;44.00;99450.50;5066385;28;20048;-71
2021/01/31 11:39:06;;;;;;;1.67;0.82;;;;;;;18.06;43.96;99452.59;5067949;28;20040;-72
2021/01/31 11:41:32;;;;;;;2.60;1.88;;;;;;;18.05;44.95;99445.47;5063151;28;20044;-72
2021/01/31 11:43:57;;;;;;;1.88;0.73;;;;;;;18.06;44.92;99443.59;5070548;28;20029;-71
2021/01/31 11:46:23;;;;;;;2.78;0.90;;;;;;;18.12;45.18;99443.59;5074158;28;20047;-72
2021/01/31 11:48:49;;;;;;;2.05;0.90;;;;;;;18.13;44.16;99442.56;5072275;28;20036;-72
2021/01/31 11:51:15;;;;;;;2.35;1.15;;;;;;;18.13;44.54;99439.84;5069444;28;20041;-72
2021/01/31 11:53:41;;;;;;;1.92;0.75;;;;;;;18.13;44.21;99441.72;5067245;28;20358;-72
2021/01/31 11:56:07;;;;;;;2.22;0.70;;;;;;;18.13;44.06;99441.72;5062269;28;20067;-71
2021/01/31 11:58:33;;;;;;;1.80;0.65;;;;;;;18.17;44.14;99443.00;5068766;28;20032;-71
2021/01/31 12:00:58;;;;;;;1.85;0.80;;;;;;;18.21;43.91;99438.84;5066844;28;20043;-71